Terminal Aerodrome Forecast
Issued by NWS

Home | Current Version | Previous Version | Graphics & Text | Print | Product List | Glossary On
Versions: 1 2 3 4 5 6 7 8 9 10 11 12 13 14 15 16 17 18 19
291
FTUS43 KIWX 222332
TAFSBN
TAF
KSBN 222332Z 2300/2324 32011G17KT P6SM FEW050
     FM230100 30007KT P6SM FEW050
     FM231600 31012G19KT P6SM FEW050=

USA.gov is the U.S. government's official web portal to all federal, state and local government web resources and services.